createdAt,value
2018-05-10T00:01:23.219Z,0.00
2018-05-10T00:02:23.137Z,0.00
2018-05-10T00:04:15.980Z,0.00
2018-05-10T00:05:15.880Z,0.00
2018-05-10T00:07:09.250Z,0.00
2018-05-10T00:08:09.139Z,0.00
2018-05-10T00:10:03.535Z,0.00
2018-05-10T00:11:03.425Z,0.00
2018-05-10T00:12:56.288Z,0.00
2018-05-10T00:13:56.189Z,0.00
2018-05-10T00:15:48.948Z,0.00
2018-05-10T00:16:48.851Z,0.00
2018-05-10T00:18:41.687Z,0.00
2018-05-10T00:19:41.597Z,0.00
2018-05-10T00:21:34.450Z,0.00
2018-05-10T00:22:34.340Z,0.00
2018-05-10T00:24:27.383Z,0.00
2018-05-10T00:25:27.176Z,0.00
2018-05-10T00:27:20.016Z,0.00
2018-05-10T00:28:20.009Z,0.00
2018-05-10T00:30:12.803Z,0.00
2018-05-10T00:31:12.676Z,0.00
2018-05-10T00:33:05.525Z,0.00
2018-05-10T00:34:05.449Z,0.00
2018-05-10T00:35:58.314Z,0.00
2018-05-10T00:36:58.177Z,0.00
2018-05-10T00:38:51.019Z,0.00
2018-05-10T00:39:50.924Z,0.00
2018-05-10T00:41:43.779Z,0.00
2018-05-10T00:42:43.708Z,0.00
2018-05-10T00:44:36.522Z,0.00
2018-05-10T00:45:36.429Z,0.00
2018-05-10T00:47:29.299Z,0.00
2018-05-10T00:48:29.194Z,0.00
2018-05-10T00:50:21.916Z,0.00
2018-05-10T00:51:21.827Z,0.00
2018-05-10T00:53:14.687Z,0.00
2018-05-10T00:54:14.579Z,0.00
2018-05-10T00:56:07.421Z,0.00
2018-05-10T00:57:07.383Z,0.00
2018-05-10T00:59:00.200Z,0.00
2018-05-10T01:00:00.071Z,0.00
2018-05-10T01:01:52.930Z,0.00
2018-05-10T01:02:52.828Z,0.00
2018-05-10T01:04:45.670Z,0.00
2018-05-10T01:05:45.484Z,0.00
2018-05-10T01:07:38.325Z,0.00
2018-05-10T01:08:38.219Z,0.00
2018-05-10T01:10:31.067Z,0.00
2018-05-10T01:11:30.970Z,0.00
2018-05-10T01:13:23.723Z,0.00
2018-05-10T01:14:23.629Z,0.00
2018-05-10T01:16:16.464Z,0.00
2018-05-10T01:17:16.380Z,0.00
2018-05-10T01:19:09.231Z,0.00
2018-05-10T01:20:09.107Z,0.00
2018-05-10T01:22:01.860Z,0.00
2018-05-10T01:23:01.765Z,0.00
2018-05-10T01:24:54.617Z,0.00
2018-05-10T01:25:54.524Z,0.00
2018-05-10T01:27:47.351Z,0.00
2018-05-10T01:28:47.275Z,0.00
2018-05-10T01:30:40.124Z,0.00
2018-05-10T01:31:40.013Z,0.00
2018-05-10T01:33:32.846Z,0.00
2018-05-10T01:34:32.803Z,0.00
2018-05-10T01:36:25.626Z,0.00
2018-05-10T01:37:25.499Z,0.00
2018-05-10T01:39:18.375Z,0.00
2018-05-10T01:40:18.254Z,0.00
2018-05-10T01:42:11.108Z,0.00
2018-05-10T01:43:11.005Z,0.00
2018-05-10T01:45:03.886Z,0.00
2018-05-10T01:46:03.662Z,0.00
2018-05-10T01:47:56.556Z,0.00
2018-05-10T01:48:56.469Z,0.00
2018-05-10T01:50:49.262Z,0.00
2018-05-10T01:51:49.167Z,0.00
2018-05-10T01:53:41.988Z,0.00
2018-05-10T01:54:41.910Z,0.00
2018-05-10T01:56:34.652Z,0.00
2018-05-10T01:57:34.581Z,0.00
2018-05-10T01:59:27.390Z,0.00
2018-05-10T02:00:27.299Z,0.00
2018-05-10T02:02:20.068Z,0.00
2018-05-10T02:03:19.979Z,0.00
2018-05-10T02:05:12.830Z,0.00
2018-05-10T02:06:12.701Z,0.00
2018-05-10T02:08:05.965Z,0.00
2018-05-10T02:09:05.879Z,0.00
2018-05-10T02:10:58.621Z,0.00
2018-05-10T02:11:58.507Z,0.00
2018-05-10T02:13:51.343Z,0.00
2018-05-10T02:14:51.276Z,0.00
2018-05-10T02:16:44.011Z,0.00
2018-05-10T02:17:43.929Z,0.00
2018-05-10T02:19:36.742Z,0.00
2018-05-10T02:20:36.648Z,0.00
2018-05-10T02:22:29.406Z,0.00
2018-05-10T02:23:29.300Z,0.00
2018-05-10T02:25:22.143Z,0.00
2018-05-10T02:26:22.054Z,0.00
2018-05-10T02:28:14.914Z,0.00
2018-05-10T02:29:14.801Z,0.00
2018-05-10T02:31:07.634Z,0.00
2018-05-10T02:32:07.544Z,0.00
2018-05-10T02:34:00.416Z,0.00
2018-05-10T02:35:00.322Z,0.00
2018-05-10T02:36:53.649Z,0.00
2018-05-10T02:37:53.555Z,0.00
2018-05-10T02:39:46.323Z,0.00
2018-05-10T02:40:46.211Z,0.00
2018-05-10T02:42:39.039Z,0.00
2018-05-10T02:43:38.950Z,0.00
2018-05-10T02:45:31.709Z,0.00
2018-05-10T02:46:31.601Z,0.00
2018-05-10T02:48:24.471Z,0.00
2018-05-10T02:49:24.352Z,0.00
2018-05-10T02:51:17.093Z,0.00
2018-05-10T02:52:16.995Z,0.00
2018-05-10T02:54:09.854Z,0.00
2018-05-10T02:55:09.737Z,0.00
2018-05-10T02:57:03.025Z,0.00
2018-05-10T02:58:02.902Z,0.00
2018-05-10T02:59:55.657Z,0.00
2018-05-10T03:00:55.555Z,0.00
2018-05-10T03:02:48.392Z,0.00
2018-05-10T03:03:48.317Z,0.00
2018-05-10T03:05:41.168Z,4.00
2018-05-10T03:06:41.054Z,4.00
2018-05-10T03:08:33.800Z,0.00
2018-05-10T03:09:33.708Z,4.00
2018-05-10T03:11:26.469Z,0.00
2018-05-10T03:12:26.372Z,4.00
2018-05-10T03:14:19.192Z,4.00
2018-05-10T03:15:19.093Z,4.00
2018-05-10T03:17:12.470Z,8.00
2018-05-10T03:18:11.753Z,8.00
2018-05-10T03:20:04.593Z,12.00
2018-05-10T03:21:04.495Z,12.00
2018-05-10T03:22:57.351Z,16.00
2018-05-10T03:23:57.156Z,16.00
2018-05-10T03:25:50.009Z,24.00
2018-05-10T03:26:49.883Z,24.00
2018-05-10T03:28:42.642Z,32.00
2018-05-10T03:29:42.549Z,32.00
2018-05-10T03:31:35.410Z,40.00
2018-05-10T03:32:35.316Z,48.00
2018-05-10T03:34:28.124Z,52.00
2018-05-10T03:35:28.049Z,56.00
2018-05-10T03:37:20.890Z,72.00
2018-05-10T03:38:20.800Z,72.00
2018-05-10T03:40:13.633Z,84.00
2018-05-10T03:41:13.547Z,88.00
2018-05-10T03:43:06.388Z,104.00
2018-05-10T03:44:06.284Z,112.00
2018-05-10T03:45:59.132Z,124.00
2018-05-10T03:46:59.066Z,132.00
2018-05-10T03:48:52.411Z,148.00
2018-05-10T03:49:51.777Z,152.00
2018-05-10T03:51:44.624Z,168.00
2018-05-10T03:52:44.533Z,180.00
2018-05-10T03:54:37.544Z,196.00
2018-05-10T03:55:37.281Z,208.00
2018-05-10T03:57:30.051Z,228.00
2018-05-10T03:58:29.972Z,240.00
2018-05-10T04:00:22.819Z,264.00
2018-05-10T04:01:22.682Z,276.00
2018-05-10T04:03:15.532Z,296.00
2018-05-10T04:04:15.427Z,308.00
2018-05-10T04:06:08.317Z,332.00
2018-05-10T04:07:08.107Z,344.00
2018-05-10T04:09:00.928Z,368.00
2018-05-10T04:10:00.837Z,380.00
2018-05-10T04:11:53.571Z,404.00
2018-05-10T04:12:53.480Z,416.00
2018-05-10T04:14:46.332Z,436.00
2018-05-10T04:15:46.228Z,444.00
2018-05-10T04:17:39.060Z,468.00
2018-05-10T04:18:38.969Z,480.00
2018-05-10T04:20:31.784Z,508.00
2018-05-10T04:21:31.620Z,516.00
2018-05-10T04:23:24.881Z,532.00
2018-05-10T04:24:24.831Z,548.00
2018-05-10T04:26:17.571Z,572.00
2018-05-10T04:27:17.510Z,588.00
2018-05-10T04:29:10.291Z,612.00
2018-05-10T04:30:10.073Z,620.00
2018-05-10T04:32:02.914Z,640.00
2018-05-10T04:33:02.845Z,652.00
2018-05-10T04:34:55.672Z,672.00
2018-05-10T04:35:55.569Z,692.00
2018-05-10T04:37:48.325Z,724.00
2018-05-10T04:38:48.220Z,740.00
2018-05-10T04:40:41.101Z,768.00
2018-05-10T04:41:40.970Z,776.00
2018-05-10T04:43:33.845Z,796.00
2018-05-10T04:44:33.736Z,804.00
2018-05-10T04:46:26.503Z,828.00
2018-05-10T04:47:26.370Z,840.00
2018-05-10T04:49:19.222Z,852.00
2018-05-10T04:50:19.128Z,860.00
2018-05-10T04:52:11.891Z,868.00
2018-05-10T04:53:11.779Z,872.00
2018-05-10T04:55:04.530Z,876.00
2018-05-10T04:56:04.411Z,884.00
2018-05-10T04:57:57.169Z,904.00
2018-05-10T04:58:57.081Z,916.00
2018-05-10T05:00:49.924Z,952.00
2018-05-10T05:01:49.804Z,960.00
2018-05-10T05:03:43.081Z,980.00
2018-05-10T05:04:42.985Z,988.00
2018-05-10T05:06:35.712Z,1004.00
2018-05-10T05:07:35.633Z,1016.00
2018-05-10T05:09:28.476Z,1036.00
2018-05-10T05:10:28.357Z,1044.00
2018-05-10T05:12:21.240Z,1064.00
2018-05-10T05:13:21.010Z,1076.00
2018-05-10T05:15:13.791Z,1096.00
2018-05-10T05:16:13.669Z,1116.00
2018-05-10T05:18:06.408Z,1140.00
2018-05-10T05:19:06.318Z,1156.00
2018-05-10T05:20:59.082Z,1200.00
2018-05-10T05:21:58.950Z,1224.00
2018-05-10T05:23:51.822Z,1280.00
2018-05-10T05:24:51.728Z,1324.00
2018-05-10T05:26:44.654Z,1396.00
2018-05-10T05:27:44.466Z,1428.00
2018-05-10T05:29:37.351Z,1460.00
2018-05-10T05:30:37.236Z,1472.00
2018-05-10T05:32:30.081Z,1488.00
2018-05-10T05:33:29.951Z,1500.00
2018-05-10T05:35:22.718Z,1520.00
2018-05-10T05:36:22.609Z,1528.00
2018-05-10T05:38:15.442Z,1544.00
2018-05-10T05:39:15.347Z,1552.00
2018-05-10T05:41:08.119Z,1564.00
2018-05-10T05:42:08.021Z,1576.00
2018-05-10T05:44:00.731Z,1584.00
2018-05-10T05:45:00.637Z,1592.00
2018-05-10T05:46:54.934Z,1608.00
2018-05-10T05:47:54.827Z,1612.00
2018-05-10T05:49:47.666Z,1624.00
2018-05-10T05:50:47.577Z,1632.00
2018-05-10T05:52:40.329Z,1648.00
2018-05-10T05:53:40.228Z,1656.00
2018-05-10T05:55:33.064Z,1668.00
2018-05-10T05:56:32.979Z,1672.00
2018-05-10T05:58:26.369Z,1684.00
2018-05-10T05:59:26.130Z,1688.00
2018-05-10T06:01:18.988Z,1700.00
2018-05-10T06:02:18.894Z,1708.00
2018-05-10T06:04:11.633Z,1720.00
2018-05-10T06:05:11.524Z,1724.00
2018-05-10T06:07:04.398Z,1740.00
2018-05-10T06:08:04.291Z,1744.00
2018-05-10T06:09:57.116Z,1760.00
2018-05-10T06:10:57.030Z,1764.00
2018-05-10T06:12:49.792Z,1776.00
2018-05-10T06:13:49.681Z,1784.00
2018-05-10T06:15:43.127Z,1800.00
2018-05-10T06:16:42.413Z,1808.00
2018-05-10T06:18:35.201Z,1820.00
2018-05-10T06:19:35.066Z,1828.00
2018-05-10T06:21:27.946Z,1844.00
2018-05-10T06:22:27.826Z,1848.00
2018-05-10T06:24:20.726Z,1868.00
2018-05-10T06:25:20.591Z,1880.00
2018-05-10T06:27:13.471Z,1896.00
2018-05-10T06:28:13.366Z,1904.00
2018-05-10T06:30:06.185Z,1920.00
2018-05-10T06:31:06.074Z,1928.00
2018-05-10T06:32:58.932Z,1940.00
2018-05-10T06:33:58.991Z,1944.00
2018-05-10T06:35:51.672Z,1956.00
2018-05-10T06:36:51.564Z,1964.00
2018-05-10T06:38:44.427Z,1980.00
2018-05-10T06:39:44.335Z,1988.00
2018-05-10T06:41:37.297Z,2004.00
2018-05-10T06:42:37.058Z,2012.00
2018-05-10T06:44:29.945Z,2028.00
2018-05-10T06:45:29.814Z,2032.00
2018-05-10T06:47:22.658Z,2052.00
2018-05-10T06:48:22.584Z,2060.00
2018-05-10T06:50:15.422Z,2076.00
2018-05-10T06:51:15.340Z,2084.00
2018-05-10T06:53:08.161Z,2096.00
2018-05-10T06:54:08.065Z,2100.00
2018-05-10T06:56:00.956Z,2120.00
2018-05-10T06:57:00.812Z,2124.00
2018-05-10T06:58:53.678Z,2136.00
2018-05-10T06:59:53.561Z,2152.00
2018-05-10T07:01:46.422Z,2168.00
2018-05-10T07:02:46.341Z,2176.00
2018-05-10T07:04:39.159Z,2192.00
2018-05-10T07:05:39.054Z,2200.00
2018-05-10T07:07:31.916Z,2220.00
2018-05-10T07:08:31.805Z,2236.00
2018-05-10T07:10:24.677Z,2248.00
2018-05-10T07:11:24.586Z,2256.00
2018-05-10T07:13:17.409Z,2280.00
2018-05-10T07:14:17.316Z,2280.00
2018-05-10T07:16:10.182Z,2296.00
2018-05-10T07:17:10.074Z,2300.00
2018-05-10T07:19:02.945Z,2324.00
2018-05-10T07:20:02.812Z,2336.00
2018-05-10T07:21:55.709Z,2360.00
2018-05-10T07:22:55.568Z,2360.00
2018-05-10T07:24:48.420Z,2376.00
2018-05-10T07:25:48.313Z,2384.00
2018-05-10T07:27:41.216Z,2400.00
2018-05-10T07:28:41.079Z,2408.00
2018-05-10T07:30:33.919Z,2412.00
2018-05-10T07:31:33.839Z,2424.00
2018-05-10T07:33:26.695Z,2448.00
2018-05-10T07:34:26.583Z,2460.00
2018-05-10T07:36:19.433Z,2472.00
2018-05-10T07:37:19.322Z,2472.00
2018-05-10T07:39:12.156Z,2488.00
2018-05-10T07:40:12.067Z,2492.00
2018-05-10T07:42:04.931Z,2508.00
2018-05-10T07:43:04.833Z,2516.00
2018-05-10T07:44:57.682Z,2528.00
2018-05-10T07:45:57.575Z,2536.00
2018-05-10T07:47:50.416Z,2552.00
2018-05-10T07:48:50.309Z,2568.00
2018-05-10T07:50:43.183Z,2596.00
2018-05-10T07:51:43.056Z,2608.00
2018-05-10T07:53:35.907Z,2648.00
2018-05-10T07:54:35.812Z,2664.00
2018-05-10T07:56:28.681Z,2696.00
2018-05-10T07:57:28.573Z,2728.00
2018-05-10T07:59:21.425Z,2768.00
2018-05-10T08:00:21.328Z,2780.00
2018-05-10T08:02:14.229Z,2820.00
2018-05-10T08:03:14.064Z,2844.00
2018-05-10T08:05:06.946Z,2888.00
2018-05-10T08:06:06.820Z,2896.00
2018-05-10T08:08:00.230Z,2936.00
2018-05-10T08:09:00.210Z,2960.00
2018-05-10T08:10:52.917Z,2996.00
2018-05-10T08:11:52.837Z,3012.00
2018-05-10T08:13:46.099Z,3028.00
2018-05-10T08:14:45.988Z,3044.00
2018-05-10T08:16:38.819Z,3076.00
2018-05-10T08:17:38.738Z,3092.00
2018-05-10T08:19:31.581Z,3112.00
2018-05-10T08:20:31.486Z,3132.00
2018-05-10T08:22:24.851Z,3160.00
2018-05-10T08:23:24.265Z,3152.00
2018-05-10T08:25:18.531Z,3188.00
2018-05-10T08:26:18.421Z,3212.00
2018-05-10T08:28:11.313Z,3260.00
2018-05-10T08:29:11.173Z,3264.00
2018-05-10T08:31:04.031Z,3276.00
2018-05-10T08:32:03.936Z,3296.00
2018-05-10T08:33:56.774Z,2724.00
2018-05-10T08:34:56.676Z,3396.00
2018-05-10T08:36:49.617Z,1696.00
2018-05-10T08:37:49.412Z,1692.00
2018-05-10T08:39:42.315Z,1696.00
2018-05-10T08:40:42.176Z,1536.00
2018-05-10T08:42:35.015Z,1536.00
2018-05-10T08:43:34.917Z,2508.00
2018-05-10T08:45:27.781Z,1676.00
2018-05-10T08:46:28.101Z,1712.00
2018-05-10T08:48:21.085Z,1672.00
2018-05-10T08:49:20.932Z,1660.00
2018-05-10T08:51:13.797Z,1656.00
2018-05-10T08:52:13.732Z,1632.00
2018-05-10T08:54:07.014Z,1636.00
2018-05-10T08:55:06.932Z,1660.00
2018-05-10T08:56:59.783Z,1788.00
2018-05-10T08:57:59.694Z,2144.00
2018-05-10T08:59:52.608Z,2864.00
2018-05-10T09:00:52.427Z,3656.00
2018-05-10T09:02:45.319Z,2076.00
2018-05-10T09:03:45.173Z,2040.00
2018-05-10T09:05:38.027Z,1884.00
2018-05-10T09:06:37.953Z,1872.00
2018-05-10T09:08:31.007Z,1752.00
2018-05-10T09:09:30.696Z,1668.00
2018-05-10T09:11:23.527Z,1564.00
2018-05-10T09:12:23.446Z,1520.00
2018-05-10T09:14:16.272Z,1480.00
2018-05-10T09:15:16.175Z,1476.00
2018-05-10T09:17:09.041Z,1480.00
2018-05-10T09:18:08.930Z,1488.00
2018-05-10T09:20:01.796Z,1508.00
2018-05-10T09:21:01.701Z,1480.00
2018-05-10T09:22:54.530Z,1448.00
2018-05-10T09:23:54.424Z,1460.00
2018-05-10T09:25:47.780Z,1504.00
2018-05-10T09:26:47.691Z,1520.00
2018-05-10T09:28:41.070Z,1568.00
2018-05-10T09:29:40.975Z,1576.00
2018-05-10T09:31:33.934Z,1636.00
2018-05-10T09:32:33.738Z,1636.00
2018-05-10T09:34:26.661Z,1680.00
2018-05-10T09:35:26.463Z,1664.00
2018-05-10T09:37:19.283Z,1636.00
2018-05-10T09:38:19.192Z,1628.00
2018-05-10T09:40:12.152Z,1680.00
2018-05-10T09:41:12.051Z,1688.00
2018-05-10T09:43:04.929Z,1708.00
2018-05-10T09:44:04.801Z,1904.00
2018-05-10T09:45:57.695Z,1792.00
2018-05-10T09:46:57.569Z,1744.00
2018-05-10T09:48:51.004Z,1720.00
2018-05-10T09:49:50.817Z,1740.00
2018-05-10T09:51:43.666Z,1864.00
2018-05-10T09:52:43.623Z,1960.00
2018-05-10T09:54:36.410Z,2112.00
2018-05-10T09:55:36.322Z,2216.00
2018-05-10T09:57:29.174Z,2272.00
2018-05-10T09:58:29.061Z,2304.00
2018-05-10T10:00:21.897Z,2292.00
2018-05-10T10:01:21.809Z,2292.00
2018-05-10T10:03:14.666Z,2276.00
2018-05-10T10:04:14.577Z,2276.00
2018-05-10T10:06:07.472Z,2260.00
2018-05-10T10:07:07.322Z,2280.00
2018-05-10T10:09:00.213Z,2252.00
2018-05-10T10:10:00.067Z,2208.00
2018-05-10T10:11:52.920Z,2088.00
2018-05-10T10:12:52.801Z,2028.00
2018-05-10T10:14:45.649Z,1932.00
2018-05-10T10:15:45.568Z,1900.00
2018-05-10T10:17:38.428Z,1840.00
2018-05-10T10:18:38.313Z,1828.00
2018-05-10T10:20:31.164Z,1840.00
2018-05-10T10:21:31.055Z,1836.00
2018-05-10T10:23:23.926Z,1772.00
2018-05-10T10:24:23.803Z,1748.00
2018-05-10T10:26:17.164Z,1668.00
2018-05-10T10:27:17.162Z,1676.00
2018-05-10T10:29:10.532Z,1700.00
2018-05-10T10:30:09.840Z,1736.00
2018-05-10T10:32:02.693Z,1872.00
2018-05-10T10:33:02.560Z,1944.00
2018-05-10T10:34:55.428Z,1964.00
2018-05-10T10:35:55.343Z,2012.00
2018-05-10T10:37:48.170Z,2116.00
2018-05-10T10:38:48.068Z,2200.00
2018-05-10T10:40:40.952Z,4012.00
2018-05-10T10:41:40.815Z,2512.00
2018-05-10T10:43:33.720Z,2912.00
2018-05-10T10:44:33.569Z,3108.00
2018-05-10T10:46:26.428Z,4100.00
2018-05-10T10:47:26.331Z,4040.00
2018-05-10T10:49:19.160Z,4028.00
2018-05-10T10:50:19.079Z,4012.00
2018-05-10T10:52:11.957Z,3916.00
2018-05-10T10:53:11.819Z,3816.00
2018-05-10T10:55:04.686Z,2156.00
2018-05-10T10:56:04.589Z,2008.00
2018-05-10T10:57:57.445Z,1964.00
2018-05-10T10:58:57.316Z,1912.00
2018-05-10T11:00:50.180Z,1876.00
2018-05-10T11:01:50.132Z,1872.00
2018-05-10T11:03:42.901Z,1848.00
2018-05-10T11:04:42.839Z,1792.00
2018-05-10T11:06:35.659Z,1760.00
2018-05-10T11:07:35.561Z,1732.00
2018-05-10T11:09:28.427Z,1636.00
2018-05-10T11:10:28.312Z,1600.00
2018-05-10T11:12:21.160Z,1508.00
2018-05-10T11:13:21.071Z,1456.00
2018-05-10T11:15:13.917Z,1404.00
2018-05-10T11:16:13.822Z,1400.00
2018-05-10T11:18:06.680Z,1316.00
2018-05-10T11:19:06.585Z,1284.00
2018-05-10T11:20:59.428Z,1228.00
2018-05-10T11:21:59.319Z,1200.00
2018-05-10T11:23:52.161Z,1148.00
2018-05-10T11:24:52.250Z,1136.00
2018-05-10T11:26:45.942Z,1108.00
2018-05-10T11:27:45.317Z,1124.00
2018-05-10T11:29:38.202Z,1120.00
2018-05-10T11:30:38.108Z,1112.00
2018-05-10T11:32:30.922Z,1104.00
2018-05-10T11:33:30.818Z,1108.00
2018-05-10T11:35:23.937Z,1176.00
2018-05-10T11:36:23.698Z,1212.00
2018-05-10T11:38:16.542Z,1244.00
2018-05-10T11:39:16.485Z,1236.00
2018-05-10T11:41:09.264Z,1172.00
2018-05-10T11:42:09.198Z,1132.00
2018-05-10T11:44:02.020Z,1068.00
2018-05-10T11:45:01.922Z,1032.00
2018-05-10T11:46:54.779Z,920.00
2018-05-10T11:47:54.666Z,876.00
2018-05-10T11:49:47.518Z,828.00
2018-05-10T11:50:47.423Z,788.00
2018-05-10T11:52:40.685Z,640.00
2018-05-10T11:53:40.599Z,580.00
2018-05-10T11:55:33.427Z,504.00
2018-05-10T11:56:33.319Z,476.00
2018-05-10T11:58:26.162Z,448.00
2018-05-10T11:59:26.071Z,444.00
2018-05-10T12:01:18.934Z,432.00
2018-05-10T12:02:18.839Z,416.00
2018-05-10T12:04:11.682Z,392.00
2018-05-10T12:05:11.595Z,400.00
2018-05-10T12:07:04.452Z,428.00
2018-05-10T12:08:04.321Z,440.00
2018-05-10T12:09:57.156Z,460.00
2018-05-10T12:10:57.067Z,460.00
2018-05-10T12:12:50.052Z,428.00
2018-05-10T12:13:49.839Z,420.00
2018-05-10T12:15:42.723Z,428.00
2018-05-10T12:16:42.576Z,440.00
2018-05-10T12:18:35.417Z,444.00
2018-05-10T12:19:35.330Z,456.00
2018-05-10T12:21:28.194Z,520.00
2018-05-10T12:22:28.072Z,536.00
2018-05-10T12:24:20.910Z,488.00
2018-05-10T12:25:20.881Z,456.00
2018-05-10T12:27:13.769Z,444.00
2018-05-10T12:28:13.635Z,444.00
2018-05-10T12:30:06.408Z,392.00
2018-05-10T12:31:06.472Z,400.00
2018-05-10T12:32:59.171Z,396.00
2018-05-10T12:33:59.067Z,388.00
2018-05-10T12:35:52.315Z,380.00
2018-05-10T12:36:51.922Z,364.00
2018-05-10T12:38:44.661Z,320.00
2018-05-10T12:39:44.566Z,300.00
2018-05-10T12:41:37.463Z,272.00
2018-05-10T12:42:37.313Z,252.00
2018-05-10T12:44:30.202Z,232.00
2018-05-10T12:45:30.100Z,220.00
2018-05-10T12:47:22.927Z,204.00
2018-05-10T12:48:22.831Z,196.00
2018-05-10T12:50:15.682Z,184.00
2018-05-10T12:51:15.582Z,180.00
2018-05-10T12:53:08.475Z,172.00
2018-05-10T12:54:08.312Z,168.00
2018-05-10T12:56:01.624Z,172.00
2018-05-10T12:57:01.491Z,172.00
2018-05-10T12:58:54.340Z,184.00
2018-05-10T12:59:54.222Z,180.00
2018-05-10T13:01:47.066Z,172.00
2018-05-10T13:02:47.076Z,160.00
2018-05-10T13:04:39.796Z,152.00
2018-05-10T13:05:39.623Z,156.00
2018-05-10T13:07:32.476Z,188.00
2018-05-10T13:08:32.455Z,216.00
2018-05-10T13:10:25.143Z,272.00
2018-05-10T13:11:25.019Z,288.00
2018-05-10T13:13:17.902Z,276.00
2018-05-10T13:14:17.775Z,264.00
2018-05-10T13:16:10.696Z,244.00
2018-05-10T13:17:10.508Z,236.00
2018-05-10T13:19:03.248Z,232.00
2018-05-10T13:20:03.180Z,228.00
2018-05-10T13:21:56.426Z,224.00
2018-05-10T13:22:56.343Z,228.00
2018-05-10T13:24:49.155Z,224.00
2018-05-10T13:25:49.061Z,216.00
2018-05-10T13:27:42.040Z,216.00
2018-05-10T13:28:41.875Z,216.00
2018-05-10T13:30:34.704Z,208.00
2018-05-10T13:31:35.618Z,188.00
2018-05-10T13:33:27.406Z,144.00
2018-05-10T13:34:27.348Z,136.00
2018-05-10T13:36:20.191Z,128.00
2018-05-10T13:37:20.074Z,124.00
2018-05-10T13:39:12.910Z,132.00
2018-05-10T13:40:12.817Z,136.00
2018-05-10T13:42:05.686Z,140.00
2018-05-10T13:43:05.563Z,148.00
2018-05-10T13:44:58.438Z,168.00
2018-05-10T13:45:58.308Z,184.00
2018-05-10T13:47:51.176Z,208.00
2018-05-10T13:48:51.064Z,224.00
2018-05-10T13:50:43.922Z,232.00
2018-05-10T13:51:43.838Z,228.00
2018-05-10T13:53:36.683Z,216.00
2018-05-10T13:54:36.564Z,216.00
2018-05-10T13:56:29.320Z,216.00
2018-05-10T13:57:29.209Z,208.00
2018-05-10T13:59:22.083Z,188.00
2018-05-10T14:00:21.968Z,180.00
2018-05-10T14:02:14.781Z,148.00
2018-05-10T14:03:14.604Z,132.00
2018-05-10T14:05:08.506Z,104.00
2018-05-10T14:06:08.175Z,96.00
2018-05-10T14:08:01.024Z,84.00
2018-05-10T14:09:00.924Z,76.00
2018-05-10T14:10:56.737Z,64.00
2018-05-10T14:11:56.645Z,64.00
2018-05-10T14:13:50.563Z,60.00
2018-05-10T14:14:50.438Z,60.00
2018-05-10T14:16:43.793Z,60.00
2018-05-10T14:17:43.680Z,68.00
2018-05-10T14:19:36.628Z,72.00
2018-05-10T14:20:36.333Z,76.00
2018-05-10T14:22:29.187Z,84.00
2018-05-10T14:23:29.101Z,92.00
2018-05-10T14:25:21.894Z,104.00
2018-05-10T14:26:21.726Z,112.00
2018-05-10T14:28:14.578Z,124.00
2018-05-10T14:29:14.509Z,140.00
2018-05-10T14:31:07.331Z,144.00
2018-05-10T14:32:07.230Z,152.00
2018-05-10T14:33:59.985Z,152.00
2018-05-10T14:34:59.869Z,156.00
2018-05-10T14:36:52.756Z,168.00
2018-05-10T14:37:52.616Z,168.00
2018-05-10T14:39:45.460Z,184.00
2018-05-10T14:40:45.390Z,192.00
2018-05-10T14:42:38.235Z,224.00
2018-05-10T14:43:38.111Z,252.00
2018-05-10T14:45:30.978Z,300.00
2018-05-10T14:46:30.879Z,328.00
2018-05-10T14:48:23.740Z,388.00
2018-05-10T14:49:23.616Z,432.00
2018-05-10T14:51:16.478Z,520.00
2018-05-10T14:52:16.362Z,568.00
2018-05-10T14:54:09.284Z,672.00
2018-05-10T14:55:09.134Z,732.00
2018-05-10T14:57:01.875Z,848.00
2018-05-10T14:58:01.783Z,900.00
2018-05-10T14:59:54.626Z,1020.00
2018-05-10T15:00:54.507Z,1088.00
2018-05-10T15:02:47.276Z,1168.00
2018-05-10T15:03:47.160Z,1192.00
2018-05-10T15:05:39.998Z,1196.00
2018-05-10T15:06:39.990Z,1172.00
2018-05-10T15:08:32.761Z,1124.00
2018-05-10T15:09:32.664Z,1104.00
2018-05-10T15:11:25.399Z,1064.00
2018-05-10T15:12:25.320Z,1048.00
2018-05-10T15:14:19.165Z,1012.00
2018-05-10T15:15:18.466Z,996.00
2018-05-10T15:17:11.304Z,948.00
2018-05-10T15:18:11.213Z,916.00
2018-05-10T15:20:04.085Z,884.00
2018-05-10T15:21:03.984Z,884.00
2018-05-10T15:22:56.851Z,804.00
2018-05-10T15:23:56.738Z,768.00
2018-05-10T15:25:49.560Z,740.00
2018-05-10T15:26:49.464Z,700.00
2018-05-10T15:28:42.331Z,664.00
2018-05-10T15:29:42.286Z,644.00
2018-05-10T15:31:35.141Z,628.00
2018-05-10T15:32:34.975Z,664.00
2018-05-10T15:34:27.823Z,780.00
2018-05-10T15:35:27.719Z,840.00
2018-05-10T15:37:20.572Z,884.00
2018-05-10T15:38:20.477Z,888.00
2018-05-10T15:40:13.306Z,880.00
2018-05-10T15:41:13.225Z,880.00
2018-05-10T15:43:06.060Z,820.00
2018-05-10T15:44:05.972Z,764.00
2018-05-10T15:45:58.833Z,724.00
2018-05-10T15:46:58.716Z,748.00
2018-05-10T15:48:51.592Z,736.00
2018-05-10T15:49:51.457Z,752.00
2018-05-10T15:51:44.225Z,812.00
2018-05-10T15:52:44.116Z,824.00
2018-05-10T15:54:36.968Z,836.00
2018-05-10T15:55:36.866Z,788.00
2018-05-10T15:57:29.721Z,716.00
2018-05-10T15:58:29.519Z,668.00
2018-05-10T16:00:22.378Z,648.00
2018-05-10T16:01:22.263Z,640.00
2018-05-10T16:03:15.088Z,636.00
2018-05-10T16:04:15.004Z,636.00
2018-05-10T16:06:07.873Z,620.00
2018-05-10T16:07:07.748Z,604.00
2018-05-10T16:09:00.528Z,580.00
2018-05-10T16:10:00.415Z,572.00
2018-05-10T16:11:53.261Z,608.00
2018-05-10T16:12:53.164Z,624.00
2018-05-10T16:14:46.013Z,644.00
2018-05-10T16:15:45.895Z,640.00
2018-05-10T16:17:38.767Z,656.00
2018-05-10T16:18:38.642Z,664.00
2018-05-10T16:20:31.525Z,600.00
2018-05-10T16:21:31.397Z,556.00
2018-05-10T16:23:24.288Z,484.00
2018-05-10T16:24:24.150Z,452.00
2018-05-10T16:26:16.999Z,388.00
2018-05-10T16:27:16.934Z,368.00
2018-05-10T16:29:09.747Z,348.00
2018-05-10T16:30:09.648Z,328.00
2018-05-10T16:32:02.903Z,284.00
2018-05-10T16:33:02.804Z,268.00
2018-05-10T16:34:55.673Z,248.00
2018-05-10T16:35:55.553Z,228.00
2018-05-10T16:37:48.302Z,200.00
2018-05-10T16:38:48.203Z,192.00
2018-05-10T16:40:40.955Z,168.00
2018-05-10T16:41:40.852Z,156.00
2018-05-10T16:43:33.611Z,144.00
2018-05-10T16:44:33.518Z,136.00
2018-05-10T16:46:26.359Z,116.00
2018-05-10T16:47:26.241Z,108.00
2018-05-10T16:49:19.122Z,96.00
2018-05-10T16:50:18.998Z,92.00
2018-05-10T16:52:11.739Z,80.00
2018-05-10T16:53:11.651Z,76.00
2018-05-10T16:55:04.427Z,68.00
2018-05-10T16:56:04.322Z,64.00
2018-05-10T16:57:57.149Z,60.00
2018-05-10T16:58:57.041Z,60.00
2018-05-10T17:00:49.812Z,60.00
2018-05-10T17:01:49.741Z,60.00
2018-05-10T17:03:42.553Z,60.00
2018-05-10T17:04:42.444Z,60.00
2018-05-10T17:06:35.198Z,60.00
2018-05-10T17:07:35.087Z,64.00
2018-05-10T17:09:27.843Z,64.00
2018-05-10T17:10:27.735Z,68.00
2018-05-10T17:12:20.613Z,68.00
2018-05-10T17:13:20.509Z,68.00
2018-05-10T17:15:13.251Z,64.00
2018-05-10T17:16:13.148Z,60.00
2018-05-10T17:18:05.882Z,52.00
2018-05-10T17:19:05.777Z,52.00
2018-05-10T17:20:59.051Z,52.00
2018-05-10T17:21:58.971Z,56.00
2018-05-10T17:23:51.817Z,64.00
2018-05-10T17:24:51.686Z,68.00
2018-05-10T17:26:44.546Z,72.00
2018-05-10T17:27:44.499Z,72.00
2018-05-10T17:29:37.317Z,72.00
2018-05-10T17:30:37.205Z,64.00
2018-05-10T17:32:30.066Z,56.00
2018-05-10T17:33:29.941Z,52.00
2018-05-10T17:35:22.784Z,48.00
2018-05-10T17:36:22.675Z,44.00
2018-05-10T17:38:15.442Z,36.00
2018-05-10T17:39:15.341Z,36.00
2018-05-10T17:41:08.073Z,32.00
2018-05-10T17:42:07.975Z,24.00
2018-05-10T17:44:00.740Z,24.00
2018-05-10T17:45:00.633Z,24.00
2018-05-10T17:46:53.473Z,24.00
2018-05-10T17:47:53.391Z,24.00
2018-05-10T17:49:46.132Z,20.00
2018-05-10T17:50:46.020Z,24.00
2018-05-10T17:52:38.904Z,20.00
2018-05-10T17:53:38.779Z,20.00
2018-05-10T17:55:31.539Z,24.00
2018-05-10T17:56:31.421Z,24.00
2018-05-10T17:58:24.277Z,24.00
2018-05-10T17:59:24.126Z,24.00
2018-05-10T18:01:16.923Z,28.00